createdAt,value
2023-01-17T00:05:04.936Z,4.90
2023-01-17T00:11:07.168Z,4.90
2023-01-17T00:17:09.185Z,4.80
2023-01-17T00:23:33.700Z,4.80
2023-01-17T00:29:35.666Z,4.70
2023-01-17T00:35:37.952Z,4.80
2023-01-17T00:41:39.923Z,4.80
2023-01-17T00:48:04.077Z,4.90
2023-01-17T00:54:25.385Z,4.90
2023-01-17T01:00:46.319Z,5.00
2023-01-17T01:07:06.887Z,5.00
2023-01-17T01:13:27.873Z,5.00
2023-01-17T01:19:49.339Z,4.90
2023-01-17T01:26:10.889Z,4.80
2023-01-17T01:32:31.726Z,4.70
2023-01-17T01:38:33.800Z,4.60
2023-01-17T01:44:45.134Z,4.50
2023-01-17T01:50:48.747Z,4.40
2023-01-17T01:56:52.823Z,4.40
2023-01-17T02:02:58.461Z,4.50
2023-01-17T02:09:05.884Z,4.30
2023-01-17T02:15:08.651Z,4.10
2023-01-17T02:21:13.608Z,4.00
2023-01-17T02:27:27.825Z,3.90
2023-01-17T02:33:48.643Z,3.90
2023-01-17T02:40:03.056Z,3.80
2023-01-17T02:46:05.413Z,3.80
2023-01-17T02:52:36.179Z,3.70
2023-01-17T02:59:02.335Z,3.60
2023-01-17T03:05:20.232Z,3.60
2023-01-17T03:11:22.724Z,3.70
2023-01-17T03:17:29.276Z,3.70
2023-01-17T03:23:31.685Z,3.80
2023-01-17T03:29:34.145Z,3.90
2023-01-17T03:35:36.377Z,3.90
2023-01-17T03:41:38.926Z,3.90
2023-01-17T03:47:41.771Z,3.90
2023-01-17T03:53:46.980Z,3.90
2023-01-17T03:59:49.666Z,4.00
2023-01-17T04:05:52.170Z,4.00
2023-01-17T04:11:54.428Z,4.00
2023-01-17T04:17:56.839Z,4.10
2023-01-17T04:23:59.220Z,4.20
2023-01-17T04:30:01.425Z,4.30
2023-01-17T04:36:03.872Z,4.30
2023-01-17T04:42:06.439Z,4.40
2023-01-17T04:48:08.920Z,4.60
2023-01-17T04:54:10.979Z,4.70
2023-01-17T05:00:13.886Z,4.80
2023-01-17T05:06:16.259Z,4.90
2023-01-17T05:12:25.731Z,5.00
2023-01-17T05:18:27.818Z,5.00
2023-01-17T05:24:31.259Z,5.10
2023-01-17T05:30:33.706Z,5.20
2023-01-17T05:36:36.065Z,5.20
2023-01-17T05:42:38.777Z,5.20
2023-01-17T05:48:40.747Z,5.10
2023-01-17T05:54:43.152Z,5.00
2023-01-17T06:00:45.699Z,5.10
2023-01-17T06:06:47.777Z,5.00
2023-01-17T06:12:49.885Z,5.00
2023-01-17T06:18:52.089Z,5.00
2023-01-17T06:24:54.679Z,5.00
2023-01-17T06:30:57.036Z,5.00
2023-01-17T06:36:59.473Z,5.20
2023-01-17T06:43:03.099Z,5.40
2023-01-17T06:49:05.680Z,5.40
2023-01-17T06:55:09.035Z,5.50
2023-01-17T07:01:13.180Z,5.40
2023-01-17T07:07:16.064Z,5.40
2023-01-17T07:13:18.652Z,5.40
2023-01-17T07:19:20.850Z,5.60
2023-01-17T07:25:23.246Z,5.60
2023-01-17T07:31:25.487Z,5.50
2023-01-17T07:37:27.686Z,5.70
2023-01-17T07:43:30.288Z,6.00
2023-01-17T07:49:32.463Z,6.10
2023-01-17T07:55:34.820Z,6.10
2023-01-17T08:01:37.432Z,6.30
2023-01-17T08:07:40.025Z,6.50
2023-01-17T08:13:42.222Z,6.70
2023-01-17T08:19:45.203Z,6.60
2023-01-17T08:25:47.375Z,6.90
2023-01-17T08:31:50.153Z,7.40
2023-01-17T08:37:54.620Z,7.90
2023-01-17T08:43:57.087Z,8.40
2023-01-17T08:50:02.011Z,9.00
2023-01-17T08:56:05.751Z,9.60
2023-01-17T09:02:15.374Z,11.60
2023-01-17T09:08:17.508Z,11.20
2023-01-17T09:14:19.785Z,11.00
2023-01-17T09:20:22.152Z,11.10
2023-01-17T09:26:29.957Z,11.40
2023-01-17T09:32:32.360Z,11.40
2023-01-17T09:38:34.610Z,11.70
2023-01-17T09:44:45.143Z,12.10
2023-01-17T09:50:53.653Z,12.20
2023-01-17T09:57:04.789Z,12.00
2023-01-17T10:03:31.704Z,11.70
2023-01-17T10:09:44.614Z,11.70
2023-01-17T10:15:54.680Z,11.70
2023-01-17T10:22:31.412Z,12.00
2023-01-17T10:28:40.706Z,12.90
2023-01-17T10:34:50.241Z,13.70
2023-01-17T10:41:16.639Z,13.80
2023-01-17T10:47:24.616Z,14.10
2023-01-17T10:53:48.233Z,14.40
2023-01-17T10:59:50.710Z,14.60
2023-01-17T11:06:15.170Z,14.70
2023-01-17T11:12:25.169Z,15.00
2023-01-17T11:18:30.134Z,15.40
2023-01-17T11:24:40.671Z,15.60
2023-01-17T11:30:52.600Z,16.00
2023-01-17T11:37:18.237Z,16.70
2023-01-17T11:43:27.991Z,17.20
2023-01-17T11:49:30.042Z,17.50
2023-01-17T11:55:32.233Z,18.10
2023-01-17T12:02:15.902Z,18.60
2023-01-17T12:08:39.615Z,24.70
2023-01-17T12:15:09.609Z,20.50
2023-01-17T12:21:28.324Z,18.80
2023-01-17T12:27:53.964Z,17.90
2023-01-17T12:34:02.640Z,17.30
2023-01-17T12:40:07.927Z,17.40
2023-01-17T12:46:21.551Z,17.30
2023-01-17T12:52:45.563Z,17.60
2023-01-17T12:58:52.471Z,17.50
2023-01-17T13:04:59.670Z,17.10
2023-01-17T13:11:28.422Z,16.70
2023-01-17T13:18:01.732Z,16.50
2023-01-17T13:24:23.080Z,16.30
2023-01-17T13:31:03.327Z,16.30
2023-01-17T13:37:33.742Z,16.10
2023-01-17T13:43:39.559Z,16.00
2023-01-17T13:49:42.272Z,15.70
2023-01-17T13:55:46.196Z,15.50
2023-01-17T14:01:52.357Z,15.30
2023-01-17T14:08:02.480Z,15.20
2023-01-17T14:14:44.567Z,15.20
2023-01-17T14:20:50.301Z,14.90
2023-01-17T14:26:59.705Z,14.70
2023-01-17T14:33:12.826Z,14.50
2023-01-17T14:39:21.396Z,14.30
2023-01-17T14:45:28.384Z,14.00
2023-01-17T14:51:35.204Z,13.70
2023-01-17T14:57:37.405Z,13.30
2023-01-17T15:03:51.409Z,13.00
2023-01-17T15:09:53.531Z,12.70
2023-01-17T15:16:07.690Z,12.50
2023-01-17T15:22:10.631Z,12.30
2023-01-17T15:28:13.752Z,12.00
2023-01-17T15:34:34.724Z,11.80
2023-01-17T15:40:43.911Z,11.60
2023-01-17T15:46:46.347Z,11.50
2023-01-17T15:52:49.826Z,11.20
2023-01-17T15:58:54.948Z,11.10
2023-01-17T16:04:57.523Z,10.90
2023-01-17T16:11:06.464Z,10.80
2023-01-17T16:17:16.272Z,10.70
2023-01-17T16:23:18.920Z,10.60
2023-01-17T16:29:20.969Z,10.50
2023-01-17T16:35:24.183Z,10.40
2023-01-17T16:41:26.463Z,10.30
2023-01-17T16:47:28.597Z,10.30
2023-01-17T16:53:30.875Z,10.30
2023-01-17T16:59:49.639Z,10.20
2023-01-17T17:05:57.613Z,10.10
2023-01-17T17:12:00.061Z,10.00
2023-01-17T17:18:02.299Z,10.00
2023-01-17T17:24:05.052Z,10.00
2023-01-17T17:30:07.422Z,9.90
2023-01-17T17:36:12.620Z,9.90
2023-01-17T17:42:17.018Z,9.90
2023-01-17T17:48:20.798Z,9.80
2023-01-17T17:54:24.947Z,9.80
2023-01-17T18:00:27.723Z,9.70
2023-01-17T18:06:29.991Z,9.70
2023-01-17T18:12:32.359Z,9.70
2023-01-17T18:18:36.681Z,9.70
2023-01-17T18:24:38.901Z,9.60
2023-01-17T18:30:41.246Z,9.70
2023-01-17T18:36:44.383Z,9.70
2023-01-17T18:42:48.775Z,9.60
2023-01-17T18:48:50.852Z,9.60
2023-01-17T18:54:52.901Z,9.50
2023-01-17T19:00:55.588Z,9.50
2023-01-17T19:06:57.855Z,9.50
2023-01-17T19:13:00.689Z,9.40
2023-01-17T19:19:07.134Z,9.40
2023-01-17T19:25:09.309Z,9.40
2023-01-17T19:31:16.503Z,9.40
2023-01-17T19:37:18.706Z,9.40
2023-01-17T19:43:21.273Z,9.30
2023-01-17T19:49:25.034Z,9.40
2023-01-17T19:55:27.157Z,9.60
2023-01-17T20:01:31.700Z,9.70
2023-01-17T20:07:34.268Z,9.80
2023-01-17T20:13:36.629Z,9.80
2023-01-17T20:19:38.808Z,9.90
2023-01-17T20:25:41.154Z,9.90
2023-01-17T20:31:44.595Z,9.90
2023-01-17T20:37:47.265Z,9.90
2023-01-17T20:43:54.731Z,9.90
2023-01-17T20:49:57.806Z,9.80
2023-01-17T20:56:00.023Z,9.80
2023-01-17T21:02:02.467Z,9.90
2023-01-17T21:08:05.440Z,9.90
2023-01-17T21:14:07.762Z,9.70
2023-01-17T21:20:14.210Z,9.60
2023-01-17T21:26:18.037Z,9.50
2023-01-17T21:32:20.372Z,9.60
2023-01-17T21:38:22.849Z,9.60
2023-01-17T21:44:26.375Z,9.50
2023-01-17T21:50:33.404Z,9.60
2023-01-17T21:56:55.018Z,9.70
2023-01-17T22:02:58.965Z,9.70
2023-01-17T22:09:01.540Z,9.80
2023-01-17T22:15:04.351Z,9.90
2023-01-17T22:21:07.809Z,9.90
2023-01-17T22:27:13.924Z,9.80
2023-01-17T22:33:16.331Z,9.80
2023-01-17T22:39:18.311Z,10.00
2023-01-17T22:45:20.491Z,10.00
2023-01-17T22:51:26.772Z,10.10
2023-01-17T22:57:29.034Z,10.10
2023-01-17T23:03:31.817Z,10.10
2023-01-17T23:09:34.283Z,10.20
2023-01-17T23:15:58.173Z,10.20
2023-01-17T23:22:16.918Z,10.10
2023-01-17T23:28:21.326Z,10.00
2023-01-17T23:34:23.439Z,10.00
2023-01-17T23:40:25.647Z,9.90
2023-01-17T23:46:29.079Z,9.70
2023-01-17T23:52:31.258Z,9.50
2023-01-17T23:58:35.066Z,9.30
